createdAt,value
2023-04-09T00:03:49.671Z,93.77
2023-04-09T00:08:51.947Z,94.18
2023-04-09T00:13:54.234Z,94.92
2023-04-09T00:18:56.679Z,93.89
2023-04-09T00:23:58.757Z,94.09
2023-04-09T00:29:01.070Z,93.52
2023-04-09T00:34:05.092Z,94.21
2023-04-09T00:39:10.767Z,95.44
2023-04-09T00:44:13.341Z,94.39
2023-04-09T00:54:53.216Z,94.70
2023-04-09T00:59:55.313Z,95.39
2023-04-09T01:04:57.471Z,95.34
2023-04-09T01:10:05.214Z,94.57
2023-04-09T01:15:18.366Z,93.79
2023-04-09T01:20:37.426Z,93.69
2023-04-09T01:25:39.411Z,93.32
2023-04-09T01:30:47.358Z,93.51
2023-04-09T01:35:50.987Z,93.63
2023-04-09T01:40:55.652Z,93.33
2023-04-09T01:46:00.654Z,94.03
2023-04-09T01:51:02.533Z,94.21
2023-04-09T01:56:04.545Z,94.12
2023-04-09T02:01:09.949Z,93.95
2023-04-09T02:06:21.205Z,93.64
2023-04-09T02:11:24.775Z,93.91
2023-04-09T02:16:27.800Z,93.74
2023-04-09T02:21:29.810Z,93.69
2023-04-09T02:26:31.687Z,94.07
2023-04-09T02:31:33.730Z,94.03
2023-04-09T02:36:35.485Z,93.67
2023-04-09T02:41:37.284Z,93.42
2023-04-09T02:46:41.620Z,94.44
2023-04-09T02:51:43.332Z,94.35
2023-04-09T02:56:44.996Z,94.42
2023-04-09T03:01:46.654Z,94.65
2023-04-09T03:06:48.373Z,94.05
2023-04-09T03:11:49.995Z,95.10
2023-04-09T03:16:51.679Z,94.92
2023-04-09T03:21:53.562Z,94.35
2023-04-09T03:26:59.679Z,95.01
2023-04-09T03:32:01.406Z,95.06
2023-04-09T03:37:03.259Z,96.29
2023-04-09T03:42:06.643Z,95.44
2023-04-09T03:47:18.112Z,95.60
2023-04-09T03:52:19.736Z,95.51
2023-04-09T03:57:28.730Z,95.65
2023-04-09T04:02:34.017Z,96.26
2023-04-09T04:07:39.518Z,96.10
2023-04-09T04:12:46.054Z,96.92
2023-04-09T04:17:57.030Z,98.09
2023-04-09T04:23:19.230Z,96.96
2023-04-09T04:28:37.869Z,96.98
2023-04-09T04:33:41.934Z,98.08
2023-04-09T04:38:48.191Z,97.13
2023-04-09T04:44:16.171Z,97.39
2023-04-09T04:49:18.340Z,97.96
2023-04-09T04:54:22.626Z,98.78
2023-04-09T04:59:28.950Z,98.63
2023-04-09T05:04:34.750Z,97.78
2023-04-09T05:09:37.260Z,97.29
2023-04-09T05:14:42.230Z,98.12
2023-04-09T05:19:44.169Z,98.22
2023-04-09T05:24:47.858Z,97.75
2023-04-09T05:29:51.196Z,98.28
2023-04-09T05:34:53.244Z,98.71
2023-04-09T05:39:56.907Z,97.73
2023-04-09T05:44:59.539Z,97.87
2023-04-09T05:50:01.815Z,97.65
2023-04-09T05:55:03.817Z,97.29
2023-04-09T06:00:18.275Z,96.90
2023-04-09T06:05:22.116Z,96.48
2023-04-09T06:10:24.361Z,96.10
2023-04-09T06:15:26.317Z,95.91
2023-04-09T06:20:29.358Z,95.70
2023-04-09T06:25:31.031Z,94.38
2023-04-09T06:30:32.782Z,94.68
2023-04-09T06:35:34.586Z,93.33
2023-04-09T06:40:38.725Z,93.31
2023-04-09T06:45:41.119Z,94.03
2023-04-09T06:50:43.168Z,93.90
2023-04-09T06:55:44.804Z,93.91
2023-04-09T07:00:46.695Z,93.57
2023-04-09T07:05:48.703Z,94.03
2023-04-09T07:10:50.475Z,93.25
2023-04-09T07:15:52.154Z,92.23
2023-04-09T07:20:53.865Z,92.53
2023-04-09T07:25:55.757Z,91.44
2023-04-09T07:30:57.656Z,91.66
2023-04-09T07:35:59.336Z,90.35
2023-04-09T07:41:01.430Z,90.42
2023-04-09T07:46:03.252Z,90.22
2023-04-09T07:51:06.140Z,89.29
2023-04-09T07:56:08.106Z,90.14
2023-04-09T08:01:09.711Z,88.53
2023-04-09T08:06:11.505Z,88.99
2023-04-09T08:11:13.195Z,88.63
2023-04-09T08:16:15.544Z,88.94
2023-04-09T08:21:17.940Z,88.92
2023-04-09T08:26:19.695Z,88.09
2023-04-09T08:31:21.549Z,88.00
2023-04-09T08:36:23.465Z,86.89
2023-04-09T08:41:26.870Z,86.63
2023-04-09T08:46:28.739Z,86.01
2023-04-09T08:51:31.512Z,85.08
2023-04-09T08:56:33.454Z,84.15
2023-04-09T09:01:35.138Z,83.78
2023-04-09T09:06:41.499Z,83.34
2023-04-09T09:11:48.599Z,83.61
2023-04-09T09:16:56.773Z,82.54
2023-04-09T09:22:03.451Z,82.87
2023-04-09T09:27:05.362Z,83.11
2023-04-09T09:32:13.526Z,82.23
2023-04-09T09:37:28.561Z,81.54
2023-04-09T09:42:30.306Z,80.55
2023-04-09T09:47:32.550Z,80.28
2023-04-09T09:52:34.225Z,80.95
2023-04-09T09:57:42.232Z,81.04
2023-04-09T10:02:53.408Z,80.68
2023-04-09T10:07:57.860Z,81.67
2023-04-09T10:12:59.835Z,81.60
2023-04-09T10:18:01.986Z,81.26
2023-04-09T10:23:09.595Z,80.24
2023-04-09T10:28:18.664Z,79.53
2023-04-09T10:33:26.929Z,78.77
2023-04-09T10:38:38.346Z,74.16
2023-04-09T10:43:40.452Z,76.85
2023-04-09T10:48:43.838Z,78.20
2023-04-09T10:53:45.768Z,77.88
2023-04-09T10:58:47.409Z,77.26
2023-04-09T11:04:10.589Z,75.31
2023-04-09T11:09:12.491Z,75.52
2023-04-09T11:14:20.442Z,74.80
2023-04-09T11:19:22.125Z,74.03
2023-04-09T11:24:23.850Z,73.65
2023-04-09T11:29:25.468Z,73.00
2023-04-09T11:34:30.570Z,71.53
2023-04-09T11:39:32.143Z,71.00
2023-04-09T11:44:33.814Z,70.36
2023-04-09T11:49:36.036Z,68.79
2023-04-09T11:54:37.850Z,69.87
2023-04-09T11:59:39.743Z,70.71
2023-04-09T12:04:50.678Z,69.70
2023-04-09T12:09:52.386Z,69.06
2023-04-09T12:14:56.951Z,69.26
2023-04-09T12:19:58.524Z,69.87
2023-04-09T12:25:00.494Z,70.15
2023-04-09T12:30:02.115Z,68.07
2023-04-09T12:35:04.346Z,69.98
2023-04-09T12:40:07.126Z,68.42
2023-04-09T12:45:15.609Z,68.77
2023-04-09T12:50:17.354Z,70.93
2023-04-09T12:55:19.029Z,71.03
2023-04-09T13:00:20.723Z,73.10
2023-04-09T13:05:22.367Z,74.25
2023-04-09T13:10:25.462Z,74.72
2023-04-09T13:15:27.419Z,75.62
2023-04-09T13:20:29.628Z,75.90
2023-04-09T13:25:31.313Z,76.61
2023-04-09T13:30:32.989Z,77.38
2023-04-09T13:35:34.728Z,76.93
2023-04-09T13:40:36.584Z,74.23
2023-04-09T13:45:38.238Z,72.93
2023-04-09T13:50:39.853Z,77.71
2023-04-09T13:55:41.788Z,79.34
2023-04-09T14:00:43.533Z,80.15
2023-04-09T14:05:45.558Z,79.22
2023-04-09T14:10:47.301Z,77.53
2023-04-09T14:15:50.047Z,76.29
2023-04-09T14:20:51.914Z,76.40
2023-04-09T14:25:53.759Z,75.95
2023-04-09T14:30:55.661Z,75.42
2023-04-09T14:35:58.729Z,75.35
2023-04-09T14:41:00.852Z,75.14
2023-04-09T14:46:04.017Z,74.97
2023-04-09T14:51:06.799Z,75.17
2023-04-09T14:56:08.605Z,74.75
2023-04-09T15:01:10.372Z,75.04
2023-04-09T15:06:12.441Z,74.04
2023-04-09T15:11:18.072Z,74.38
2023-04-09T15:16:28.031Z,72.33
2023-04-09T15:21:31.726Z,70.11
2023-04-09T15:26:34.520Z,69.79
2023-04-09T15:31:36.427Z,72.97
2023-04-09T15:36:38.252Z,72.97
2023-04-09T15:41:39.860Z,73.27
2023-04-09T15:46:41.569Z,72.51
2023-04-09T15:51:43.249Z,72.78
2023-04-09T15:56:45.113Z,73.30
2023-04-09T16:01:46.821Z,73.04
2023-04-09T16:06:48.441Z,72.96
2023-04-09T16:11:51.096Z,73.83
2023-04-09T16:16:53.790Z,73.66
2023-04-09T16:21:55.739Z,74.27
2023-04-09T16:26:57.823Z,73.47
2023-04-09T16:32:00.049Z,73.70
2023-04-09T16:37:01.971Z,73.90
2023-04-09T16:42:03.641Z,73.75
2023-04-09T16:47:05.336Z,73.79
2023-04-09T16:52:07.161Z,73.92
2023-04-09T16:57:08.943Z,74.31
2023-04-09T17:02:10.702Z,73.30
2023-04-09T17:07:12.525Z,74.28
2023-04-09T17:12:14.236Z,74.40
2023-04-09T17:17:16.150Z,74.80
2023-04-09T17:22:17.951Z,75.11
2023-04-09T17:27:19.784Z,75.26
2023-04-09T17:32:21.503Z,75.74
2023-04-09T17:37:23.188Z,76.35
2023-04-09T17:42:24.824Z,76.33
2023-04-09T17:47:26.513Z,76.81
2023-04-09T17:52:29.214Z,76.81
2023-04-09T17:57:30.909Z,77.33
2023-04-09T18:02:33.008Z,77.30
2023-04-09T18:07:34.951Z,77.75
2023-04-09T18:12:36.569Z,78.10
2023-04-09T18:17:38.318Z,78.45
2023-04-09T18:22:39.956Z,78.78
2023-04-09T18:27:41.545Z,78.84
2023-04-09T18:32:43.986Z,79.04
2023-04-09T18:37:45.859Z,79.40
2023-04-09T18:42:54.144Z,79.47
2023-04-09T18:47:55.820Z,80.14
2023-04-09T18:52:57.454Z,79.98
2023-04-09T18:57:59.208Z,80.24
2023-04-09T19:03:01.253Z,80.85
2023-04-09T19:08:05.301Z,81.04
2023-04-09T19:13:06.995Z,80.91
2023-04-09T19:18:08.598Z,81.13
2023-04-09T19:23:10.312Z,81.44
2023-04-09T19:28:12.101Z,81.51
2023-04-09T19:33:13.763Z,81.44
2023-04-09T19:38:16.319Z,81.91
2023-04-09T19:43:18.033Z,81.62
2023-04-09T19:48:19.638Z,81.73
2023-04-09T19:53:22.859Z,82.06
2023-04-09T19:58:24.586Z,81.99
2023-04-09T20:03:26.350Z,82.48
2023-04-09T20:08:28.242Z,82.59
2023-04-09T20:13:29.999Z,82.50
2023-04-09T20:18:32.014Z,82.46
2023-04-09T20:23:33.661Z,82.89
2023-04-09T20:28:35.870Z,82.78
2023-04-09T20:33:37.472Z,82.59
2023-04-09T20:38:39.051Z,82.67
2023-04-09T20:43:40.762Z,82.60
2023-04-09T20:48:43.196Z,82.43
2023-04-09T20:53:45.436Z,82.59
2023-04-09T20:58:47.289Z,82.59
2023-04-09T21:03:49.150Z,82.67
2023-04-09T21:08:51.745Z,82.68
2023-04-09T21:13:55.256Z,82.49
2023-04-09T21:18:57.242Z,82.64
2023-04-09T21:23:58.936Z,83.57
2023-04-09T21:29:01.573Z,83.45
2023-04-09T21:34:03.256Z,84.78
2023-04-09T21:39:04.967Z,85.14
2023-04-09T21:44:08.631Z,84.81
2023-04-09T21:49:10.481Z,84.81
2023-04-09T21:54:12.095Z,84.40
2023-04-09T21:59:13.681Z,84.15
2023-04-09T22:04:15.638Z,83.60
2023-04-09T22:09:17.242Z,83.97
2023-04-09T22:14:19.832Z,84.36
2023-04-09T22:19:21.728Z,84.90
2023-04-09T22:24:30.358Z,84.93
2023-04-09T22:29:32.820Z,84.76
2023-04-09T22:34:34.662Z,84.72
2023-04-09T22:39:36.502Z,84.63
2023-04-09T22:44:39.673Z,84.50
2023-04-09T22:49:41.318Z,84.57
2023-04-09T22:54:43.270Z,85.40
2023-04-09T22:59:44.887Z,85.63
2023-04-09T23:04:46.702Z,86.01
2023-04-09T23:09:48.482Z,85.84
2023-04-09T23:14:50.167Z,86.60
2023-04-09T23:19:54.598Z,86.37
2023-04-09T23:24:56.692Z,86.22
2023-04-09T23:29:58.383Z,86.96
2023-04-09T23:35:01.239Z,87.04
2023-04-09T23:40:02.936Z,87.03
2023-04-09T23:45:05.800Z,87.40
2023-04-09T23:50:08.408Z,86.96
2023-04-09T23:55:10.755Z,88.82
